sensor_id;sensor_type;location;lat;lon;timestamp;temperature;humidity
20946;DHT22;10632;51.276;7.116;2022-11-25T00:01:26;7.10;99.90
20946;DHT22;10632;51.276;7.116;2022-11-25T00:03:58;7.10;99.90
20946;DHT22;10632;51.276;7.116;2022-11-25T00:06:29;7.20;99.90
20946;DHT22;10632;51.276;7.116;2022-11-25T00:08:57;7.20;99.90
20946;DHT22;10632;51.276;7.116;2022-11-25T00:11:25;7.20;99.90
20946;DHT22;10632;51.276;7.116;2022-11-25T00:13:52;7.30;99.90
20946;DHT22;10632;51.276;7.116;2022-11-25T00:16:20;7.30;99.90
20946;DHT22;10632;51.276;7.116;2022-11-25T00:18:50;7.30;99.90
20946;DHT22;10632;51.276;7.116;2022-11-25T00:21:20;7.40;99.90
20946;DHT22;10632;51.276;7.116;2022-11-25T00:23:51;7.40;99.90
20946;DHT22;10632;51.276;7.116;2022-11-25T00:26:19;7.40;99.90
20946;DHT22;10632;51.276;7.116;2022-11-25T00:28:46;7.40;99.90
20946;DHT22;10632;51.276;7.116;2022-11-25T00:31:18;7.50;99.90
20946;DHT22;10632;51.276;7.116;2022-11-25T00:33:46;7.50;99.90
20946;DHT22;10632;51.276;7.116;2022-11-25T00:36:16;7.50;99.90
20946;DHT22;10632;51.276;7.116;2022-11-25T00:38:44;7.50;99.90
20946;DHT22;10632;51.276;7.116;2022-11-25T00:41:13;7.50;99.90
20946;DHT22;10632;51.276;7.116;2022-11-25T00:43:58;7.50;99.90
20946;DHT22;10632;51.276;7.116;2022-11-25T00:46:42;7.50;99.90
20946;DHT22;10632;51.276;7.116;2022-11-25T00:49:12;7.50;99.90
20946;DHT22;10632;51.276;7.116;2022-11-25T00:51:41;7.50;99.90
20946;DHT22;10632;51.276;7.116;2022-11-25T00:54:12;7.50;99.90
20946;DHT22;10632;51.276;7.116;2022-11-25T00:56:39;7.50;99.90
20946;DHT22;10632;51.276;7.116;2022-11-25T00:59:06;7.50;99.90
20946;DHT22;10632;51.276;7.116;2022-11-25T01:01:33;7.50;99.90
20946;DHT22;10632;51.276;7.116;2022-11-25T01:04:04;7.50;99.90
20946;DHT22;10632;51.276;7.116;2022-11-25T01:06:31;7.50;99.90
20946;DHT22;10632;51.276;7.116;2022-11-25T01:08:58;7.50;99.90
20946;DHT22;10632;51.276;7.116;2022-11-25T01:11:27;7.40;99.90
20946;DHT22;10632;51.276;7.116;2022-11-25T01:13:54;7.50;99.90
20946;DHT22;10632;51.276;7.116;2022-11-25T01:16:23;7.40;99.90
20946;DHT22;10632;51.276;7.116;2022-11-25T01:18:50;7.40;99.90
20946;DHT22;10632;51.276;7.116;2022-11-25T01:21:19;7.40;99.90
20946;DHT22;10632;51.276;7.116;2022-11-25T01:23:46;7.40;99.90
20946;DHT22;10632;51.276;7.116;2022-11-25T01:26:15;7.40;99.90
20946;DHT22;10632;51.276;7.116;2022-11-25T01:28:45;7.40;99.90
20946;DHT22;10632;51.276;7.116;2022-11-25T01:31:14;7.30;99.90
20946;DHT22;10632;51.276;7.116;2022-11-25T01:33:45;7.30;99.90
20946;DHT22;10632;51.276;7.116;2022-11-25T01:36:14;7.30;99.90
20946;DHT22;10632;51.276;7.116;2022-11-25T01:38:44;7.30;99.90
20946;DHT22;10632;51.276;7.116;2022-11-25T01:41:13;7.30;99.90
20946;DHT22;10632;51.276;7.116;2022-11-25T01:44:17;7.30;99.90
20946;DHT22;10632;51.276;7.116;2022-11-25T01:46:54;7.30;99.90
20946;DHT22;10632;51.276;7.116;2022-11-25T01:49:28;7.30;99.90
20946;DHT22;10632;51.276;7.116;2022-11-25T01:52:07;7.30;99.90
20946;DHT22;10632;51.276;7.116;2022-11-25T01:54:43;7.20;99.90
20946;DHT22;10632;51.276;7.116;2022-11-25T01:57:17;7.20;99.90
20946;DHT22;10632;51.276;7.116;2022-11-25T01:59:49;7.20;99.90
20946;DHT22;10632;51.276;7.116;2022-11-25T02:02:20;7.20;99.90
20946;DHT22;10632;51.276;7.116;2022-11-25T02:04:48;7.20;99.90
20946;DHT22;10632;51.276;7.116;2022-11-25T02:07:20;7.20;99.90
20946;DHT22;10632;51.276;7.116;2022-11-25T02:09:50;7.20;99.90
20946;DHT22;10632;51.276;7.116;2022-11-25T02:12:17;7.20;99.90
20946;DHT22;10632;51.276;7.116;2022-11-25T02:14:50;7.30;99.90
20946;DHT22;10632;51.276;7.116;2022-11-25T02:17:20;7.30;99.90
20946;DHT22;10632;51.276;7.116;2022-11-25T02:19:59;7.40;99.90
20946;DHT22;10632;51.276;7.116;2022-11-25T02:22:36;7.40;99.90
20946;DHT22;10632;51.276;7.116;2022-11-25T02:25:13;7.50;99.90
20946;DHT22;10632;51.276;7.116;2022-11-25T02:27:42;7.60;99.90
20946;DHT22;10632;51.276;7.116;2022-11-25T02:30:10;7.60;99.90
20946;DHT22;10632;51.276;7.116;2022-11-25T02:32:42;7.70;99.90
20946;DHT22;10632;51.276;7.116;2022-11-25T02:35:30;7.70;99.90
20946;DHT22;10632;51.276;7.116;2022-11-25T02:38:06;7.70;99.90
20946;DHT22;10632;51.276;7.116;2022-11-25T02:40:44;7.80;99.90
20946;DHT22;10632;51.276;7.116;2022-11-25T02:43:12;7.80;99.90
20946;DHT22;10632;51.276;7.116;2022-11-25T02:45:48;7.80;99.90
20946;DHT22;10632;51.276;7.116;2022-11-25T02:48:16;7.80;99.90
20946;DHT22;10632;51.276;7.116;2022-11-25T02:50:44;7.80;99.90
20946;DHT22;10632;51.276;7.116;2022-11-25T02:53:11;7.90;99.90
20946;DHT22;10632;51.276;7.116;2022-11-25T02:55:40;7.90;99.90
20946;DHT22;10632;51.276;7.116;2022-11-25T02:58:07;7.90;99.90
20946;DHT22;10632;51.276;7.116;2022-11-25T03:00:34;7.90;99.90
20946;DHT22;10632;51.276;7.116;2022-11-25T03:03:02;7.90;99.90
20946;DHT22;10632;51.276;7.116;2022-11-25T03:05:32;7.90;99.90
20946;DHT22;10632;51.276;7.116;2022-11-25T03:08:00;8.00;99.90
20946;DHT22;10632;51.276;7.116;2022-11-25T03:10:27;8.00;99.90
20946;DHT22;10632;51.276;7.116;2022-11-25T03:12:58;8.00;99.90
20946;DHT22;10632;51.276;7.116;2022-11-25T03:15:24;8.00;99.90
20946;DHT22;10632;51.276;7.116;2022-11-25T03:17:52;8.00;99.90
20946;DHT22;10632;51.276;7.116;2022-11-25T03:20:19;8.10;99.90
20946;DHT22;10632;51.276;7.116;2022-11-25T03:22:46;8.10;99.90
20946;DHT22;10632;51.276;7.116;2022-11-25T03:25:14;8.10;99.90
20946;DHT22;10632;51.276;7.116;2022-11-25T03:27:41;8.20;99.90
20946;DHT22;10632;51.276;7.116;2022-11-25T03:30:13;8.20;99.90
20946;DHT22;10632;51.276;7.116;2022-11-25T03:32:42;8.20;99.90
20946;DHT22;10632;51.276;7.116;2022-11-25T03:35:09;8.20;99.90
20946;DHT22;10632;51.276;7.116;2022-11-25T03:37:39;8.30;99.90
20946;DHT22;10632;51.276;7.116;2022-11-25T03:40:08;8.30;99.90
20946;DHT22;10632;51.276;7.116;2022-11-25T03:42:35;8.30;99.90
20946;DHT22;10632;51.276;7.116;2022-11-25T03:45:03;8.30;99.90
20946;DHT22;10632;51.276;7.116;2022-11-25T03:47:32;8.30;99.90
20946;DHT22;10632;51.276;7.116;2022-11-25T03:49:59;8.40;99.90
20946;DHT22;10632;51.276;7.116;2022-11-25T03:52:26;8.40;99.90
20946;DHT22;10632;51.276;7.116;2022-11-25T03:54:53;8.40;99.90
20946;DHT22;10632;51.276;7.116;2022-11-25T03:57:21;8.40;99.90
20946;DHT22;10632;51.276;7.116;2022-11-25T03:59:48;8.50;99.90
20946;DHT22;10632;51.276;7.116;2022-11-25T04:02:16;8.50;99.90
20946;DHT22;10632;51.276;7.116;2022-11-25T04:04:44;8.50;99.90
20946;DHT22;10632;51.276;7.116;2022-11-25T04:07:11;8.50;99.90
20946;DHT22;10632;51.276;7.116;2022-11-25T04:09:39;8.50;99.90
20946;DHT22;10632;51.276;7.116;2022-11-25T04:12:06;8.50;99.90
20946;DHT22;10632;51.276;7.116;2022-11-25T04:14:50;8.50;99.90
20946;DHT22;10632;51.276;7.116;2022-11-25T04:17:20;8.40;99.90
20946;DHT22;10632;51.276;7.116;2022-11-25T04:19:49;8.40;99.90
20946;DHT22;10632;51.276;7.116;2022-11-25T04:22:16;8.40;99.90
20946;DHT22;10632;51.276;7.116;2022-11-25T04:24:43;8.40;99.90
20946;DHT22;10632;51.276;7.116;2022-11-25T04:27:13;8.40;99.90
20946;DHT22;10632;51.276;7.116;2022-11-25T04:29:43;8.30;99.90
20946;DHT22;10632;51.276;7.116;2022-11-25T04:32:13;8.30;99.90
20946;DHT22;10632;51.276;7.116;2022-11-25T04:34:41;8.20;99.90
20946;DHT22;10632;51.276;7.116;2022-11-25T04:37:10;8.20;99.90
20946;DHT22;10632;51.276;7.116;2022-11-25T04:39:37;8.20;99.90
20946;DHT22;10632;51.276;7.116;2022-11-25T04:42:03;8.10;99.90
20946;DHT22;10632;51.276;7.116;2022-11-25T04:44:48;8.10;99.90
20946;DHT22;10632;51.276;7.116;2022-11-25T04:47:15;8.00;99.90
20946;DHT22;10632;51.276;7.116;2022-11-25T04:49:41;8.00;99.90
20946;DHT22;10632;51.276;7.116;2022-11-25T04:52:10;8.20;99.90
20946;DHT22;10632;51.276;7.116;2022-11-25T04:54:39;8.20;99.90
20946;DHT22;10632;51.276;7.116;2022-11-25T04:57:08;8.20;99.90
20946;DHT22;10632;51.276;7.116;2022-11-25T04:59:36;8.10;99.90
20946;DHT22;10632;51.276;7.116;2022-11-25T05:02:05;8.10;99.90
20946;DHT22;10632;51.276;7.116;2022-11-25T05:04:35;8.10;99.90
20946;DHT22;10632;51.276;7.116;2022-11-25T05:07:02;8.00;99.90
20946;DHT22;10632;51.276;7.116;2022-11-25T05:09:31;8.00;99.90
20946;DHT22;10632;51.276;7.116;2022-11-25T05:11:57;7.90;99.90
20946;DHT22;10632;51.276;7.116;2022-11-25T05:14:24;7.90;99.90
20946;DHT22;10632;51.276;7.116;2022-11-25T05:16:51;7.90;99.90
20946;DHT22;10632;51.276;7.116;2022-11-25T05:19:18;7.90;99.90
20946;DHT22;10632;51.276;7.116;2022-11-25T05:21:45;7.90;99.90
20946;DHT22;10632;51.276;7.116;2022-11-25T05:24:12;7.80;99.90
20946;DHT22;10632;51.276;7.116;2022-11-25T05:26:43;7.80;99.90
20946;DHT22;10632;51.276;7.116;2022-11-25T05:29:10;7.80;99.90
20946;DHT22;10632;51.276;7.116;2022-11-25T05:31:37;7.80;99.90
20946;DHT22;10632;51.276;7.116;2022-11-25T05:34:04;7.80;99.90
20946;DHT22;10632;51.276;7.116;2022-11-25T05:36:31;7.80;99.90
20946;DHT22;10632;51.276;7.116;2022-11-25T05:38:59;7.80;99.90
20946;DHT22;10632;51.276;7.116;2022-11-25T05:41:26;7.80;99.90
20946;DHT22;10632;51.276;7.116;2022-11-25T05:43:54;7.70;99.90
20946;DHT22;10632;51.276;7.116;2022-11-25T05:46:21;7.70;99.90
20946;DHT22;10632;51.276;7.116;2022-11-25T05:48:52;7.70;99.90
20946;DHT22;10632;51.276;7.116;2022-11-25T05:51:19;7.70;99.90
20946;DHT22;10632;51.276;7.116;2022-11-25T05:53:46;7.70;99.90
20946;DHT22;10632;51.276;7.116;2022-11-25T05:56:12;7.60;99.90
20946;DHT22;10632;51.276;7.116;2022-11-25T05:58:42;7.60;99.90
20946;DHT22;10632;51.276;7.116;2022-11-25T06:01:12;7.60;99.90
20946;DHT22;10632;51.276;7.116;2022-11-25T06:03:40;7.60;99.90
20946;DHT22;10632;51.276;7.116;2022-11-25T06:06:07;7.60;99.90
20946;DHT22;10632;51.276;7.116;2022-11-25T06:08:38;7.60;99.90
20946;DHT22;10632;51.276;7.116;2022-11-25T06:11:05;7.60;99.90
20946;DHT22;10632;51.276;7.116;2022-11-25T06:13:32;7.50;99.90
20946;DHT22;10632;51.276;7.116;2022-11-25T06:16:05;7.50;99.90
20946;DHT22;10632;51.276;7.116;2022-11-25T06:18:34;7.50;99.90
20946;DHT22;10632;51.276;7.116;2022-11-25T06:21:01;7.50;99.90
20946;DHT22;10632;51.276;7.116;2022-11-25T06:23:28;7.50;99.90
20946;DHT22;10632;51.276;7.116;2022-11-25T06:26:03;7.40;99.90
20946;DHT22;10632;51.276;7.116;2022-11-25T06:28:31;7.40;99.90
20946;DHT22;10632;51.276;7.116;2022-11-25T06:31:05;7.40;99.90
20946;DHT22;10632;51.276;7.116;2022-11-25T06:33:34;7.40;99.90
20946;DHT22;10632;51.276;7.116;2022-11-25T06:36:02;7.40;99.90
20946;DHT22;10632;51.276;7.116;2022-11-25T06:38:31;7.30;99.90
20946;DHT22;10632;51.276;7.116;2022-11-25T06:40:59;7.30;99.90
20946;DHT22;10632;51.276;7.116;2022-11-25T06:43:26;7.30;99.90
20946;DHT22;10632;51.276;7.116;2022-11-25T06:45:53;7.30;99.90
20946;DHT22;10632;51.276;7.116;2022-11-25T06:48:20;7.30;99.90
20946;DHT22;10632;51.276;7.116;2022-11-25T06:50:56;7.30;99.90
20946;DHT22;10632;51.276;7.116;2022-11-25T06:53:23;7.30;99.90
20946;DHT22;10632;51.276;7.116;2022-11-25T06:56:01;7.30;99.90
20946;DHT22;10632;51.276;7.116;2022-11-25T06:58:28;7.30;99.90
20946;DHT22;10632;51.276;7.116;2022-11-25T07:01:00;7.30;99.90
20946;DHT22;10632;51.276;7.116;2022-11-25T07:03:27;7.30;99.90
20946;DHT22;10632;51.276;7.116;2022-11-25T07:05:56;7.30;99.90
20946;DHT22;10632;51.276;7.116;2022-11-25T07:08:24;7.30;99.90
20946;DHT22;10632;51.276;7.116;2022-11-25T07:10:51;7.30;99.90
20946;DHT22;10632;51.276;7.116;2022-11-25T07:13:18;7.20;99.90
20946;DHT22;10632;51.276;7.116;2022-11-25T07:15:45;7.20;99.90
20946;DHT22;10632;51.276;7.116;2022-11-25T07:18:12;7.20;99.90
20946;DHT22;10632;51.276;7.116;2022-11-25T07:20:39;7.20;99.90
20946;DHT22;10632;51.276;7.116;2022-11-25T07:23:07;7.20;99.90
20946;DHT22;10632;51.276;7.116;2022-11-25T07:25:34;7.30;99.90
20946;DHT22;10632;51.276;7.116;2022-11-25T07:28:01;7.30;99.90
20946;DHT22;10632;51.276;7.116;2022-11-25T07:30:28;7.30;99.90
20946;DHT22;10632;51.276;7.116;2022-11-25T07:32:55;7.30;99.90
20946;DHT22;10632;51.276;7.116;2022-11-25T07:35:22;7.30;99.90
20946;DHT22;10632;51.276;7.116;2022-11-25T07:37:49;7.30;99.90
20946;DHT22;10632;51.276;7.116;2022-11-25T07:40:20;7.30;99.90
20946;DHT22;10632;51.276;7.116;2022-11-25T07:42:46;7.20;99.90
20946;DHT22;10632;51.276;7.116;2022-11-25T07:45:13;7.30;99.90
20946;DHT22;10632;51.276;7.116;2022-11-25T07:47:40;7.30;99.90
20946;DHT22;10632;51.276;7.116;2022-11-25T07:50:10;7.20;99.90
20946;DHT22;10632;51.276;7.116;2022-11-25T07:52:38;7.30;99.90
20946;DHT22;10632;51.276;7.116;2022-11-25T07:55:07;7.30;99.90
20946;DHT22;10632;51.276;7.116;2022-11-25T07:57:35;7.30;99.90
20946;DHT22;10632;51.276;7.116;2022-11-25T08:00:05;7.30;99.90
20946;DHT22;10632;51.276;7.116;2022-11-25T08:02:32;7.30;99.90
20946;DHT22;10632;51.276;7.116;2022-11-25T08:04:59;7.30;99.90
20946;DHT22;10632;51.276;7.116;2022-11-25T08:07:26;7.30;99.90
20946;DHT22;10632;51.276;7.116;2022-11-25T08:09:53;7.30;99.90
20946;DHT22;10632;51.276;7.116;2022-11-25T08:12:20;7.30;99.90
20946;DHT22;10632;51.276;7.116;2022-11-25T08:14:48;7.30;99.90
20946;DHT22;10632;51.276;7.116;2022-11-25T08:17:15;7.30;99.90
20946;DHT22;10632;51.276;7.116;2022-11-25T08:19:42;7.40;99.90
20946;DHT22;10632;51.276;7.116;2022-11-25T08:22:08;7.40;99.90
20946;DHT22;10632;51.276;7.116;2022-11-25T08:24:35;7.30;99.90
20946;DHT22;10632;51.276;7.116;2022-11-25T08:27:02;7.40;99.90
20946;DHT22;10632;51.276;7.116;2022-11-25T08:29:29;7.40;99.90
20946;DHT22;10632;51.276;7.116;2022-11-25T08:31:57;7.40;99.90
20946;DHT22;10632;51.276;7.116;2022-11-25T08:34:24;7.40;99.90
20946;DHT22;10632;51.276;7.116;2022-11-25T08:36:57;7.40;99.90
20946;DHT22;10632;51.276;7.116;2022-11-25T08:39:24;7.50;99.90
20946;DHT22;10632;51.276;7.116;2022-11-25T08:41:51;7.50;99.90
20946;DHT22;10632;51.276;7.116;2022-11-25T08:44:18;7.50;99.90
20946;DHT22;10632;51.276;7.116;2022-11-25T08:46:45;7.60;99.90
20946;DHT22;10632;51.276;7.116;2022-11-25T08:49:13;7.60;99.90
20946;DHT22;10632;51.276;7.116;2022-11-25T08:51:42;7.60;99.90
20946;DHT22;10632;51.276;7.116;2022-11-25T08:54:09;7.70;99.90
20946;DHT22;10632;51.276;7.116;2022-11-25T08:56:35;7.70;99.90
20946;DHT22;10632;51.276;7.116;2022-11-25T08:59:03;7.70;99.90
20946;DHT22;10632;51.276;7.116;2022-11-25T09:01:30;7.70;99.90
20946;DHT22;10632;51.276;7.116;2022-11-25T09:03:58;7.70;99.90
20946;DHT22;10632;51.276;7.116;2022-11-25T09:06:27;7.70;99.90
20946;DHT22;10632;51.276;7.116;2022-11-25T09:08:55;7.70;99.90
20946;DHT22;10632;51.276;7.116;2022-11-25T09:11:23;7.70;99.90
20946;DHT22;10632;51.276;7.116;2022-11-25T09:13:50;7.80;99.90
20946;DHT22;10632;51.276;7.116;2022-11-25T09:16:17;7.80;99.90
20946;DHT22;10632;51.276;7.116;2022-11-25T09:18:44;7.80;99.90
20946;DHT22;10632;51.276;7.116;2022-11-25T09:21:13;7.90;99.90
20946;DHT22;10632;51.276;7.116;2022-11-25T09:23:44;7.90;99.90
20946;DHT22;10632;51.276;7.116;2022-11-25T09:26:20;7.90;99.90
20946;DHT22;10632;51.276;7.116;2022-11-25T09:28:47;7.90;99.90
20946;DHT22;10632;51.276;7.116;2022-11-25T09:31:14;7.90;99.90
20946;DHT22;10632;51.276;7.116;2022-11-25T09:33:41;7.90;99.90
20946;DHT22;10632;51.276;7.116;2022-11-25T09:36:09;7.90;99.90
20946;DHT22;10632;51.276;7.116;2022-11-25T09:38:37;7.90;99.90
20946;DHT22;10632;51.276;7.116;2022-11-25T09:41:13;7.90;99.90
20946;DHT22;10632;51.276;7.116;2022-11-25T09:43:49;8.00;99.90
20946;DHT22;10632;51.276;7.116;2022-11-25T09:46:50;8.00;99.90
20946;DHT22;10632;51.276;7.116;2022-11-25T09:49:29;8.00;99.90
20946;DHT22;10632;51.276;7.116;2022-11-25T09:52:09;8.00;99.90
20946;DHT22;10632;51.276;7.116;2022-11-25T09:54:41;8.00;99.90
20946;DHT22;10632;51.276;7.116;2022-11-25T09:57:24;8.00;99.90
20946;DHT22;10632;51.276;7.116;2022-11-25T10:00:00;8.00;99.90
20946;DHT22;10632;51.276;7.116;2022-11-25T10:02:34;8.10;99.90
20946;DHT22;10632;51.276;7.116;2022-11-25T10:05:07;8.10;99.90
20946;DHT22;10632;51.276;7.116;2022-11-25T10:07:42;8.20;99.90
20946;DHT22;10632;51.276;7.116;2022-11-25T10:10:17;8.20;99.90
20946;DHT22;10632;51.276;7.116;2022-11-25T10:12:46;8.20;99.90
20946;DHT22;10632;51.276;7.116;2022-11-25T10:15:18;8.30;99.90
20946;DHT22;10632;51.276;7.116;2022-11-25T10:17:48;8.30;99.90
20946;DHT22;10632;51.276;7.116;2022-11-25T10:20:21;8.40;99.90
20946;DHT22;10632;51.276;7.116;2022-11-25T10:22:51;8.40;99.90
20946;DHT22;10632;51.276;7.116;2022-11-25T10:25:20;8.40;99.90
20946;DHT22;10632;51.276;7.116;2022-11-25T10:27:54;8.40;99.90
20946;DHT22;10632;51.276;7.116;2022-11-25T10:30:24;8.40;99.90
20946;DHT22;10632;51.276;7.116;2022-11-25T10:32:53;8.40;99.90
20946;DHT22;10632;51.276;7.116;2022-11-25T10:35:26;8.40;99.90
20946;DHT22;10632;51.276;7.116;2022-11-25T10:37:56;8.40;99.90
20946;DHT22;10632;51.276;7.116;2022-11-25T10:40:24;8.40;99.90
20946;DHT22;10632;51.276;7.116;2022-11-25T10:42:52;8.40;99.90
20946;DHT22;10632;51.276;7.116;2022-11-25T10:45:21;8.40;99.90
20946;DHT22;10632;51.276;7.116;2022-11-25T10:48:12;8.40;99.90
20946;DHT22;10632;51.276;7.116;2022-11-25T10:50:59;8.50;99.90
20946;DHT22;10632;51.276;7.116;2022-11-25T10:53:28;8.50;99.90
20946;DHT22;10632;51.276;7.116;2022-11-25T10:56:00;8.50;99.90
20946;DHT22;10632;51.276;7.116;2022-11-25T10:58:34;8.60;99.90
20946;DHT22;10632;51.276;7.116;2022-11-25T11:01:05;8.60;99.90
20946;DHT22;10632;51.276;7.116;2022-11-25T11:03:32;8.60;99.90
20946;DHT22;10632;51.276;7.116;2022-11-25T11:06:00;8.70;99.90
20946;DHT22;10632;51.276;7.116;2022-11-25T11:08:28;8.70;99.90
20946;DHT22;10632;51.276;7.116;2022-11-25T11:11:15;8.70;99.90
20946;DHT22;10632;51.276;7.116;2022-11-25T11:13:44;8.70;99.90
20946;DHT22;10632;51.276;7.116;2022-11-25T11:16:30;8.70;99.90
20946;DHT22;10632;51.276;7.116;2022-11-25T11:18:59;8.80;99.90
20946;DHT22;10632;51.276;7.116;2022-11-25T11:21:30;8.80;99.90
20946;DHT22;10632;51.276;7.116;2022-11-25T11:23:58;8.80;99.90
20946;DHT22;10632;51.276;7.116;2022-11-25T11:26:27;8.80;99.90
20946;DHT22;10632;51.276;7.116;2022-11-25T11:29:05;8.80;99.90
20946;DHT22;10632;51.276;7.116;2022-11-25T11:31:39;8.90;99.90
20946;DHT22;10632;51.276;7.116;2022-11-25T11:34:39;8.90;99.90
20946;DHT22;10632;51.276;7.116;2022-11-25T11:37:19;9.00;99.90
20946;DHT22;10632;51.276;7.116;2022-11-25T11:40:00;9.00;99.90
20946;DHT22;10632;51.276;7.116;2022-11-25T11:42:34;9.00;99.90
20946;DHT22;10632;51.276;7.116;2022-11-25T11:45:18;9.00;99.90
20946;DHT22;10632;51.276;7.116;2022-11-25T11:47:58;9.10;99.90
20946;DHT22;10632;51.276;7.116;2022-11-25T11:50:31;9.20;99.90
20946;DHT22;10632;51.276;7.116;2022-11-25T11:53:06;9.30;99.90
20946;DHT22;10632;51.276;7.116;2022-11-25T11:55:55;9.40;99.90
20946;DHT22;10632;51.276;7.116;2022-11-25T11:58:33;9.40;99.90
20946;DHT22;10632;51.276;7.116;2022-11-25T12:01:10;9.40;99.90
20946;DHT22;10632;51.276;7.116;2022-11-25T12:03:48;9.40;99.90
20946;DHT22;10632;51.276;7.116;2022-11-25T12:06:21;9.30;99.90
20946;DHT22;10632;51.276;7.116;2022-11-25T12:08:53;9.30;99.90
20946;DHT22;10632;51.276;7.116;2022-11-25T12:11:26;9.30;99.90
20946;DHT22;10632;51.276;7.116;2022-11-25T12:13:58;9.30;99.90
20946;DHT22;10632;51.276;7.116;2022-11-25T12:16:32;9.30;99.90
20946;DHT22;10632;51.276;7.116;2022-11-25T12:19:05;9.30;99.90
20946;DHT22;10632;51.276;7.116;2022-11-25T12:21:39;9.30;99.90
20946;DHT22;10632;51.276;7.116;2022-11-25T12:24:15;9.30;99.90
20946;DHT22;10632;51.276;7.116;2022-11-25T12:26:50;9.20;99.90
20946;DHT22;10632;51.276;7.116;2022-11-25T12:29:26;9.20;99.90
20946;DHT22;10632;51.276;7.116;2022-11-25T12:32:01;9.30;99.90
20946;DHT22;10632;51.276;7.116;2022-11-25T12:34:36;9.30;99.90
20946;DHT22;10632;51.276;7.116;2022-11-25T12:37:09;9.40;99.90
20946;DHT22;10632;51.276;7.116;2022-11-25T12:39:41;9.40;99.90
20946;DHT22;10632;51.276;7.116;2022-11-25T12:42:13;9.50;99.90
20946;DHT22;10632;51.276;7.116;2022-11-25T12:44:49;9.50;99.90
20946;DHT22;10632;51.276;7.116;2022-11-25T12:47:23;9.50;99.90
20946;DHT22;10632;51.276;7.116;2022-11-25T12:49:52;9.60;99.90
20946;DHT22;10632;51.276;7.116;2022-11-25T12:52:32;9.50;99.90
20946;DHT22;10632;51.276;7.116;2022-11-25T12:55:08;9.50;99.90
20946;DHT22;10632;51.276;7.116;2022-11-25T13:00:39;9.50;99.90
20946;DHT22;10632;51.276;7.116;2022-11-25T13:06:53;9.40;99.90
20946;DHT22;10632;51.276;7.116;2022-11-25T13:09:40;9.50;99.90
20946;DHT22;10632;51.276;7.116;2022-11-25T13:12:23;9.70;99.90
20946;DHT22;10632;51.276;7.116;2022-11-25T13:15:22;9.70;99.90
20946;DHT22;10632;51.276;7.116;2022-11-25T13:17:55;9.70;99.90
20946;DHT22;10632;51.276;7.116;2022-11-25T13:20:34;9.70;99.90
20946;DHT22;10632;51.276;7.116;2022-11-25T13:23:18;9.60;99.90
20946;DHT22;10632;51.276;7.116;2022-11-25T13:25:49;9.60;99.90
20946;DHT22;10632;51.276;7.116;2022-11-25T13:28:28;9.50;99.90
20946;DHT22;10632;51.276;7.116;2022-11-25T13:31:16;9.50;99.90
20946;DHT22;10632;51.276;7.116;2022-11-25T13:34:06;9.40;99.90
20946;DHT22;10632;51.276;7.116;2022-11-25T13:36:46;9.40;99.90
20946;DHT22;10632;51.276;7.116;2022-11-25T13:39:15;9.40;99.90
20946;DHT22;10632;51.276;7.116;2022-11-25T13:41:46;9.40;99.90
20946;DHT22;10632;51.276;7.116;2022-11-25T13:44:21;9.30;99.90
20946;DHT22;10632;51.276;7.116;2022-11-25T13:46:51;9.40;99.90
20946;DHT22;10632;51.276;7.116;2022-11-25T13:49:31;9.40;99.90
20946;DHT22;10632;51.276;7.116;2022-11-25T13:52:02;9.30;99.90
20946;DHT22;10632;51.276;7.116;2022-11-25T13:54:38;9.30;99.90
20946;DHT22;10632;51.276;7.116;2022-11-25T13:57:24;9.30;99.90
20946;DHT22;10632;51.276;7.116;2022-11-25T13:59:55;9.40;99.90
20946;DHT22;10632;51.276;7.116;2022-11-25T14:02:36;9.50;99.90
20946;DHT22;10632;51.276;7.116;2022-11-25T14:08:34;9.50;99.90
20946;DHT22;10632;51.276;7.116;2022-11-25T14:11:36;9.50;99.90
20946;DHT22;10632;51.276;7.116;2022-11-25T14:14:26;9.50;99.90
20946;DHT22;10632;51.276;7.116;2022-11-25T14:17:09;9.40;99.90
20946;DHT22;10632;51.276;7.116;2022-11-25T14:20:12;9.50;99.90
20946;DHT22;10632;51.276;7.116;2022-11-25T14:22:59;9.50;99.90
20946;DHT22;10632;51.276;7.116;2022-11-25T14:25:29;9.50;99.90
20946;DHT22;10632;51.276;7.116;2022-11-25T14:28:24;9.50;99.90
20946;DHT22;10632;51.276;7.116;2022-11-25T14:30:55;9.40;99.90
20946;DHT22;10632;51.276;7.116;2022-11-25T14:33:30;9.40;99.90
20946;DHT22;10632;51.276;7.116;2022-11-25T14:36:02;9.40;99.90
20946;DHT22;10632;51.276;7.116;2022-11-25T14:38:36;9.30;99.90
20946;DHT22;10632;51.276;7.116;2022-11-25T14:41:07;9.20;99.90
20946;DHT22;10632;51.276;7.116;2022-11-25T14:43:44;9.20;99.90
20946;DHT22;10632;51.276;7.116;2022-11-25T14:46:14;9.20;99.90
20946;DHT22;10632;51.276;7.116;2022-11-25T14:48:42;9.10;99.90
20946;DHT22;10632;51.276;7.116;2022-11-25T14:51:10;9.10;99.90
20946;DHT22;10632;51.276;7.116;2022-11-25T14:53:42;9.10;99.90
20946;DHT22;10632;51.276;7.116;2022-11-25T14:56:10;9.10;99.90
20946;DHT22;10632;51.276;7.116;2022-11-25T14:58:40;9.10;99.90
20946;DHT22;10632;51.276;7.116;2022-11-25T15:01:17;9.10;99.90
20946;DHT22;10632;51.276;7.116;2022-11-25T15:03:46;9.00;99.90
20946;DHT22;10632;51.276;7.116;2022-11-25T15:06:14;9.10;99.90
20946;DHT22;10632;51.276;7.116;2022-11-25T15:08:43;9.10;99.90
20946;DHT22;10632;51.276;7.116;2022-11-25T15:11:14;9.00;99.90
20946;DHT22;10632;51.276;7.116;2022-11-25T15:13:44;9.00;99.90
20946;DHT22;10632;51.276;7.116;2022-11-25T15:16:14;9.00;99.90
20946;DHT22;10632;51.276;7.116;2022-11-25T15:18:47;9.00;99.90
20946;DHT22;10632;51.276;7.116;2022-11-25T15:21:16;9.10;99.90
20946;DHT22;10632;51.276;7.116;2022-11-25T15:23:44;9.00;99.90
20946;DHT22;10632;51.276;7.116;2022-11-25T15:26:19;9.10;99.90
20946;DHT22;10632;51.276;7.116;2022-11-25T15:28:52;9.10;99.90
20946;DHT22;10632;51.276;7.116;2022-11-25T15:31:20;9.10;99.90
20946;DHT22;10632;51.276;7.116;2022-11-25T15:33:55;9.10;99.90
20946;DHT22;10632;51.276;7.116;2022-11-25T15:36:22;9.10;99.90
20946;DHT22;10632;51.276;7.116;2022-11-25T15:38:50;9.10;99.90
20946;DHT22;10632;51.276;7.116;2022-11-25T15:41:31;9.10;99.90
20946;DHT22;10632;51.276;7.116;2022-11-25T15:44:02;9.00;99.90
20946;DHT22;10632;51.276;7.116;2022-11-25T15:46:32;9.00;99.90
20946;DHT22;10632;51.276;7.116;2022-11-25T15:49:01;9.10;99.90
20946;DHT22;10632;51.276;7.116;2022-11-25T15:51:32;9.10;99.90
20946;DHT22;10632;51.276;7.116;2022-11-25T15:54:04;9.10;99.90
20946;DHT22;10632;51.276;7.116;2022-11-25T15:56:36;9.00;99.90
20946;DHT22;10632;51.276;7.116;2022-11-25T15:59:33;9.00;99.90
20946;DHT22;10632;51.276;7.116;2022-11-25T16:01:56;9.00;99.90
20946;DHT22;10632;51.276;7.116;2022-11-25T16:04:23;9.00;99.90
20946;DHT22;10632;51.276;7.116;2022-11-25T16:06:53;9.00;99.90
20946;DHT22;10632;51.276;7.116;2022-11-25T16:09:22;9.10;99.90
20946;DHT22;10632;51.276;7.116;2022-11-25T16:11:52;9.10;99.90
20946;DHT22;10632;51.276;7.116;2022-11-25T16:14:24;9.10;99.90
20946;DHT22;10632;51.276;7.116;2022-11-25T16:16:54;9.10;99.90
20946;DHT22;10632;51.276;7.116;2022-11-25T16:19:32;9.10;99.90
20946;DHT22;10632;51.276;7.116;2022-11-25T16:22:01;9.10;99.90